Time;durP1;ratioP1;P1;durP2;ratioP2;P2;SDS_P1;SDS_P2;PMS_P1;PMS_P2;Temp;Humidity;BMP_temperature;BMP_pressure;BME280_temperature;BME280_humidity;BME280_pressure;Samples;Min_cycle;Max_cycle;Signal;HPM_P1;HPM_P2
2023/10/08 00:02:11;;;;;;;5.27;3.17;;;;;;;15.10;70.33;155239.22;4952457;28;20438;-83
2023/10/08 00:04:38;;;;;;;4.50;3.63;;;;;;;15.08;69.99;155235.34;4968737;28;20465;-84
2023/10/08 00:07:07;;;;;;;5.20;3.37;;;;;;;15.07;69.82;155232.72;4979238;28;20482;-83
2023/10/08 00:09:36;;;;;;;4.43;3.20;;;;;;;15.10;70.54;155239.22;4968823;28;20793;-82
2023/10/08 00:12:04;;;;;;;4.43;3.23;;;;;;;15.10;71.19;155239.22;4966579;28;20565;-82
2023/10/08 00:14:32;;;;;;;4.27;3.00;;;;;;;15.06;71.00;155228.84;4977380;28;20481;-83
2023/10/08 00:17:00;;;;;;;5.53;3.47;;;;;;;15.04;69.87;155224.94;4987196;28;20443;-83
2023/10/08 00:19:33;;;;;;;4.20;2.90;;;;;;;15.05;70.56;155227.53;4972705;28;20678;-83
2023/10/08 00:22:04;;;;;;;6.07;3.43;;;;;;;15.06;71.38;155228.84;4972031;28;20436;-83
2023/10/08 00:24:33;;;;;;;6.60;2.80;;;;;;;15.01;69.41;155215.88;4970491;28;20464;-83
2023/10/08 00:27:00;;;;;;;5.30;4.30;;;;;;;15.00;69.73;155213.25;4968142;28;20470;-83
2023/10/08 00:29:31;;;;;;;4.50;2.63;;;;;;;14.99;70.59;155211.94;4986975;28;21005;-83
2023/10/08 00:31:58;;;;;;;4.90;3.17;;;;;;;14.96;69.71;155202.81;5006971;28;20439;-83
2023/10/08 00:34:27;;;;;;;4.63;3.43;;;;;;;14.97;71.49;155206.75;4992702;28;21026;-83
2023/10/08 00:36:53;;;;;;;5.10;3.57;;;;;;;14.94;69.77;155197.66;4993342;28;20455;-83
2023/10/08 00:39:23;;;;;;;5.60;3.03;;;;;;;14.96;71.86;155202.81;4993623;28;21001;-83
2023/10/08 00:41:58;;;;;;;4.40;2.63;;;;;;;14.97;71.87;155206.75;4958246;28;20437;-83
2023/10/08 00:44:29;;;;;;;4.80;2.80;;;;;;;14.97;70.26;155206.75;4970400;28;20500;-83
2023/10/08 00:46:57;;;;;;;5.70;3.23;;;;;;;14.99;71.72;155210.63;4955427;28;20474;-83
2023/10/08 00:49:39;;;;;;;5.37;2.87;;;;;;;14.98;69.67;155208.06;4958128;28;20442;-83
2023/10/08 00:52:25;;;;;;;3.60;2.50;;;;;;;15.01;72.78;155217.13;4984714;28;20453;-83
2023/10/08 00:54:56;;;;;;;6.47;3.30;;;;;;;14.99;73.33;155210.63;5007032;28;20528;-82
2023/10/08 00:57:28;;;;;;;3.70;2.77;;;;;;;14.95;72.13;155201.56;4992682;28;20432;-82
2023/10/08 00:59:55;;;;;;;4.77;2.87;;;;;;;14.91;69.03;155189.84;4998074;28;20449;-82
2023/10/08 01:02:26;;;;;;;5.13;2.80;;;;;;;14.93;70.61;155196.34;4987953;28;20818;-83
2023/10/08 01:04:54;;;;;;;3.97;2.77;;;;;;;14.92;71.72;155192.47;4956719;28;20945;-83
2023/10/08 01:07:23;;;;;;;5.60;2.80;;;;;;;14.89;70.31;155185.97;4973666;28;20477;-83
2023/10/08 01:09:51;;;;;;;4.53;2.87;;;;;;;14.91;70.99;155189.84;4993658;28;20483;-82
2023/10/08 01:12:23;;;;;;;5.03;3.23;;;;;;;14.89;69.12;155184.66;4969914;28;20517;-83
2023/10/08 01:14:53;;;;;;;5.67;2.73;;;;;;;14.90;71.41;155188.56;4954049;28;20549;-82
2023/10/08 01:17:24;;;;;;;4.37;2.97;;;;;;;14.93;72.88;155196.34;4986919;28;20438;-83
2023/10/08 01:19:56;;;;;;;3.43;2.20;;;;;;;14.93;71.02;155195.06;4943053;28;20451;-82
2023/10/08 01:22:28;;;;;;;3.60;2.50;;;;;;;14.95;72.21;155200.25;4971017;28;20442;-83
2023/10/08 01:24:55;;;;;;;3.63;3.10;;;;;;;14.95;72.14;155201.56;4953330;28;20466;-82
2023/10/08 01:27:24;;;;;;;4.33;3.00;;;;;;;14.92;69.05;155192.47;4968982;28;20568;-82
2023/10/08 01:29:51;;;;;;;5.50;2.60;;;;;;;14.96;70.60;155202.81;4965683;28;20453;-83
2023/10/08 01:32:19;;;;;;;6.07;3.30;;;;;;;14.94;69.13;155197.66;4967158;28;20537;-83
2023/10/08 01:34:46;;;;;;;4.90;2.90;;;;;;;14.94;72.70;155197.66;4983344;28;20536;-83
2023/10/08 01:37:14;;;;;;;6.47;2.80;;;;;;;14.92;73.63;155192.47;4987743;28;20484;-82
2023/10/08 01:39:42;;;;;;;3.87;3.00;;;;;;;14.86;71.65;155178.16;4953884;28;20457;-83
2023/10/08 01:42:15;;;;;;;5.93;3.10;;;;;;;14.80;70.96;155162.56;4983250;28;20453;-84
2023/10/08 01:44:44;;;;;;;8.20;3.40;;;;;;;14.84;73.95;155171.66;4976470;28;20470;-82
2023/10/08 01:47:12;;;;;;;5.03;2.93;;;;;;;14.76;72.22;155150.88;4989546;28;20465;-82
2023/10/08 01:49:39;;;;;;;5.00;3.30;;;;;;;14.75;72.70;155149.56;4971473;28;20999;-83
2023/10/08 01:52:13;;;;;;;6.07;3.03;;;;;;;14.71;72.13;155139.22;4989166;28;20446;-83
2023/10/08 01:54:40;;;;;;;6.37;3.13;;;;;;;14.68;71.54;155130.09;4992289;28;20793;-83
2023/10/08 01:57:09;;;;;;;6.80;3.10;;;;;;;14.65;70.77;155123.59;4993134;28;20469;-82
2023/10/08 01:59:37;;;;;;;4.73;2.83;;;;;;;14.67;71.26;155127.53;4960027;28;20457;-83
2023/10/08 02:02:05;;;;;;;5.37;3.23;;;;;;;14.66;71.59;155126.22;4986725;28;20851;-83
2023/10/08 02:04:35;;;;;;;5.53;3.20;;;;;;;14.64;71.79;155122.28;4967976;28;20455;-83
2023/10/08 02:07:03;;;;;;;5.40;3.67;;;;;;;14.61;71.21;155113.25;4986728;28;20476;-83
2023/10/08 02:09:33;;;;;;;6.13;2.97;;;;;;;14.61;71.55;155113.25;4987982;28;20544;-83
2023/10/08 02:11:59;;;;;;;4.60;3.10;;;;;;;14.60;72.46;155111.94;4989737;28;20475;-83
2023/10/08 02:14:31;;;;;;;4.63;2.70;;;;;;;14.56;70.90;155100.25;4978962;28;20617;-83
2023/10/08 02:17:01;;;;;;;4.37;2.77;;;;;;;14.53;69.32;155093.72;4972335;28;20496;-83
2023/10/08 02:19:28;;;;;;;4.23;3.60;;;;;;;14.50;70.15;155084.66;4972368;28;20522;-83
2023/10/08 02:21:55;;;;;;;5.00;2.67;;;;;;;14.46;70.85;155075.53;4972502;28;20444;-83
2023/10/08 02:24:23;;;;;;;3.23;2.33;;;;;;;14.43;71.66;155066.44;4975330;28;20461;-83
2023/10/08 02:26:52;;;;;;;4.60;3.50;;;;;;;14.39;72.12;155057.38;4989745;28;20516;-83
2023/10/08 02:29:18;;;;;;;3.50;2.67;;;;;;;14.36;72.13;155049.59;4991260;28;20484;-83
2023/10/08 02:31:47;;;;;;;5.47;2.93;;;;;;;14.39;72.71;155057.38;4989574;28;20472;-83
2023/10/08 02:34:13;;;;;;;4.70;2.43;;;;;;;14.38;72.54;155054.75;4972359;28;20449;-82
2023/10/08 02:36:41;;;;;;;5.07;2.87;;;;;;;14.38;71.27;155053.47;4972060;28;20433;-82
2023/10/08 02:39:13;;;;;;;5.57;3.30;;;;;;;14.42;73.26;155065.19;4971047;28;20433;-83
2023/10/08 02:41:42;;;;;;;4.13;2.90;;;;;;;14.42;73.47;155065.19;4987048;28;20536;-82
2023/10/08 02:44:11;;;;;;;4.07;3.03;;;;;;;14.40;72.95;155059.94;4971177;28;20441;-82
2023/10/08 02:46:40;;;;;;;5.20;2.67;;;;;;;14.41;72.57;155061.25;4985586;28;20492;-83
2023/10/08 02:49:10;;;;;;;4.50;3.03;;;;;;;14.39;70.34;155056.06;4971999;28;20434;-83
2023/10/08 02:51:37;;;;;;;4.87;3.17;;;;;;;14.41;73.66;155062.56;4972048;28;20456;-83
2023/10/08 02:54:05;;;;;;;5.37;2.70;;;;;;;14.37;72.30;155052.19;4971822;28;20509;-83
2023/10/08 02:56:32;;;;;;;3.53;2.40;;;;;;;14.33;71.26;155041.78;4989589;28;20521;-83
2023/10/08 02:59:00;;;;;;;4.10;2.50;;;;;;;14.33;72.57;155041.78;4976236;28;20549;-82
2023/10/08 03:01:26;;;;;;;4.90;2.47;;;;;;;14.26;71.47;155023.56;4975254;28;20461;-83
2023/10/08 03:04:01;;;;;;;4.30;3.40;;;;;;;14.23;71.83;155014.47;4988115;28;20473;-83
2023/10/08 03:06:31;;;;;;;4.57;2.53;;;;;;;14.19;72.85;155005.34;4977718;28;20473;-82
2023/10/08 03:09:03;;;;;;;4.73;2.37;;;;;;;14.14;72.46;154991.13;4998766;28;20441;-82
2023/10/08 03:11:31;;;;;;;4.60;2.60;;;;;;;14.11;73.31;154984.59;4987698;28;20460;-83
2023/10/08 03:13:58;;;;;;;5.30;3.93;;;;;;;14.05;72.86;154969.03;4955281;28;20580;-83
2023/10/08 03:16:28;;;;;;;5.17;2.70;;;;;;;13.99;70.92;154953.44;4975541;28;20466;-83
2023/10/08 03:18:57;;;;;;;5.93;2.67;;;;;;;14.02;72.14;154962.56;4985948;28;20768;-83
2023/10/08 03:21:48;;;;;;;4.70;2.70;;;;;;;14.08;73.44;154975.53;4988680;28;20967;-83
2023/10/08 03:24:29;;;;;;;4.90;3.03;;;;;;;14.09;72.48;154978.09;4989309;28;20453;-83
2023/10/08 03:27:05;;;;;;;7.87;3.43;;;;;;;14.03;72.65;154963.84;4971633;28;20466;-82
2023/10/08 03:29:40;;;;;;;5.10;2.80;;;;;;;14.02;73.23;154961.25;4966461;28;20562;-83
2023/10/08 03:32:16;;;;;;;4.20;2.40;;;;;;;13.97;73.55;154949.56;4965082;28;20488;-83
2023/10/08 03:34:47;;;;;;;5.27;2.83;;;;;;;13.94;72.69;154941.78;4981272;28;20477;-83
2023/10/08 03:37:19;;;;;;;6.27;3.33;;;;;;;13.93;72.52;154939.16;4951100;28;20443;-82
2023/10/08 03:40:01;;;;;;;3.60;2.47;;;;;;;13.91;72.77;154933.97;4968199;28;20450;-83
2023/10/08 03:42:34;;;;;;;3.63;2.50;;;;;;;13.88;73.47;154926.19;4969956;28;20470;-82
2023/10/08 03:45:09;;;;;;;5.30;2.93;;;;;;;13.85;73.92;154918.38;4969881;28;20450;-80
2023/10/08 03:47:37;;;;;;;5.80;3.10;;;;;;;13.82;73.56;154910.59;4988317;28;20470;-81
2023/10/08 03:50:06;;;;;;;4.30;3.00;;;;;;;13.81;72.74;154906.72;4967957;28;20533;-83
2023/10/08 03:52:36;;;;;;;4.73;2.50;;;;;;;13.85;73.85;154917.06;4982799;28;20900;-82
2023/10/08 03:55:20;;;;;;;5.03;2.87;;;;;;;13.83;74.10;154911.91;4966831;28;20481;-83
2023/10/08 03:57:56;;;;;;;4.03;2.53;;;;;;;13.81;73.36;154906.72;4967913;28;20490;-82
2023/10/08 04:00:31;;;;;;;4.93;3.10;;;;;;;13.81;75.58;154906.72;4950637;28;20465;-83
2023/10/08 04:03:00;;;;;;;5.27;3.17;;;;;;;13.77;75.28;154896.31;4956279;28;21014;-83
2023/10/08 04:05:32;;;;;;;3.40;2.43;;;;;;;13.78;74.60;154900.22;4975325;28;20528;-83
2023/10/08 04:08:19;;;;;;;5.90;2.73;;;;;;;13.77;73.18;154897.63;4978274;28;20515;-83
2023/10/08 04:13:30;;;;;;;5.80;2.87;;;;;;;13.71;73.48;154880.78;4970449;28;21036;-80
2023/10/08 04:15:57;;;;;;;4.80;2.80;;;;;;;13.74;74.53;154888.56;4954000;28;20517;-81
2023/10/08 04:18:24;;;;;;;5.77;3.37;;;;;;;13.77;76.02;154896.31;4971752;28;20533;-82
2023/10/08 04:21:04;;;;;;;5.33;3.10;;;;;;;13.76;76.21;154895.06;4951531;29;20459;-81
2023/10/08 04:23:31;;;;;;;4.30;2.73;;;;;;;13.69;73.39;154875.53;4940321;28;20450;-81
2023/10/08 04:25:59;;;;;;;5.53;3.20;;;;;;;13.69;74.13;154876.84;4954325;28;20774;-81
2023/10/08 04:28:28;;;;;;;5.20;2.90;;;;;;;13.70;75.64;154878.16;4972865;28;20827;-81
2023/10/08 04:31:00;;;;;;;5.20;2.53;;;;;;;13.69;75.33;154875.53;4972858;28;20554;-81
2023/10/08 04:33:31;;;;;;;4.20;2.67;;;;;;;13.67;75.38;154871.66;4968541;28;20442;-82
2023/10/08 04:36:01;;;;;;;4.63;2.90;;;;;;;13.69;76.83;154875.53;4954407;28;20442;-82
2023/10/08 04:38:28;;;;;;;5.17;2.77;;;;;;;13.67;76.22;154871.66;4954550;28;20437;-82
2023/10/08 04:41:01;;;;;;;4.00;2.63;;;;;;;13.63;77.44;154860.00;4950758;29;20482;-81
2023/10/08 04:43:30;;;;;;;3.70;2.90;;;;;;;13.61;76.58;154854.81;4951629;28;20514;-82
2023/10/08 04:45:57;;;;;;;5.33;3.10;;;;;;;13.64;77.12;154862.56;4970197;28;20476;-83
2023/10/08 04:48:24;;;;;;;5.77;2.87;;;;;;;13.65;76.32;154865.19;4968777;28;20481;-81
2023/10/08 04:50:59;;;;;;;8.10;2.97;;;;;;;13.64;75.88;154863.88;4954623;28;20450;-81
2023/10/08 04:53:35;;;;;;;9.97;3.50;;;;;;;13.63;74.91;154860.00;4960165;28;20805;-81
2023/10/08 04:56:05;;;;;;;4.33;2.70;;;;;;;13.59;73.54;154849.59;4950755;29;20447;-81
2023/10/08 04:58:40;;;;;;;2.77;2.00;;;;;;;13.59;74.10;154850.91;4966401;28;20785;-82
2023/10/08 05:01:20;;;;;;;4.50;2.93;;;;;;;13.61;74.94;154854.81;4948146;28;20513;-81
2023/10/08 05:04:07;;;;;;;3.53;2.70;;;;;;;13.63;74.82;154860.00;4952748;28;20453;-81
2023/10/08 05:07:00;;;;;;;3.77;2.70;;;;;;;13.69;75.79;154875.53;4963229;28;21000;-82
2023/10/08 05:09:39;;;;;;;4.70;3.30;;;;;;;13.65;74.55;154865.19;4949502;28;20472;-81
2023/10/08 05:12:28;;;;;;;3.90;2.07;;;;;;;13.64;74.38;154862.56;4956732;28;20446;-83
2023/10/08 05:15:21;;;;;;;4.20;2.80;;;;;;;13.61;74.30;154854.81;4981785;28;20524;-82
2023/10/08 05:17:56;;;;;;;6.03;3.53;;;;;;;13.62;75.48;154857.38;4987197;28;20834;-83
2023/10/08 05:20:40;;;;;;;6.13;2.63;;;;;;;13.59;74.05;154850.91;4954661;28;20453;-82
2023/10/08 05:23:20;;;;;;;3.17;2.00;;;;;;;13.62;75.21;154857.38;4984671;28;20476;-82
2023/10/08 05:25:57;;;;;;;6.37;2.90;;;;;;;13.60;75.38;154853.50;4977708;28;20458;-81
2023/10/08 05:28:24;;;;;;;3.47;2.40;;;;;;;13.58;75.16;154847.03;4955062;28;20791;-82
2023/10/08 05:30:54;;;;;;;6.00;2.07;;;;;;;13.56;75.59;154843.09;4987160;28;20913;-82
2023/10/08 05:33:44;;;;;;;5.10;2.63;;;;;;;13.55;77.34;154839.22;4990126;28;20493;-82
2023/10/08 05:36:18;;;;;;;4.37;2.47;;;;;;;13.52;75.74;154831.44;4973417;28;20871;-82
2023/10/08 05:39:00;;;;;;;5.53;3.03;;;;;;;13.50;76.03;154827.56;4989849;28;21128;-82
2023/10/08 05:41:38;;;;;;;4.53;2.60;;;;;;;13.50;76.09;154827.56;4985425;28;20533;-83
2023/10/08 05:44:14;;;;;;;7.13;3.57;;;;;;;13.50;75.43;154826.25;4970373;28;20457;-82
2023/10/08 05:47:06;;;;;;;4.63;3.33;;;;;;;13.50;75.97;154826.25;4986035;28;20445;-82
2023/10/08 05:49:54;;;;;;;5.93;2.77;;;;;;;13.54;76.82;154836.63;4983223;28;20521;-82
2023/10/08 05:52:40;;;;;;;4.63;2.80;;;;;;;13.54;77.18;154836.63;4968758;28;20511;-83
2023/10/08 05:55:22;;;;;;;4.63;2.83;;;;;;;13.55;76.13;154840.53;4969731;28;20461;-83
2023/10/08 05:57:52;;;;;;;6.33;2.63;;;;;;;13.58;76.88;154847.03;4984395;28;20457;-82
2023/10/08 06:06:21;;;;;;;6.43;2.63;;;;;;;13.68;76.99;154872.97;4949864;28;20457;-82
2023/10/08 06:08:49;;;;;;;5.03;2.70;;;;;;;13.72;77.00;154883.34;4967310;28;20935;-83
2023/10/08 06:11:27;;;;;;;5.20;2.70;;;;;;;13.78;75.86;154898.91;4975593;28;20456;-82
2023/10/08 06:13:59;;;;;;;4.10;2.90;;;;;;;13.86;76.65;154919.69;4967468;28;20476;-82
2023/10/08 06:16:41;;;;;;;5.70;2.90;;;;;;;13.90;75.51;154930.06;4967373;28;20473;-82
2023/10/08 06:19:09;;;;;;;6.03;2.83;;;;;;;13.98;74.46;154952.13;4985174;28;20528;-83
2023/10/08 06:21:38;;;;;;;7.03;2.57;;;;;;;14.06;74.62;154971.59;4986423;28;20669;-82
2023/10/08 06:24:08;;;;;;;5.37;3.20;;;;;;;14.08;75.20;154975.53;4969483;28;20466;-82
2023/10/08 06:26:42;;;;;;;5.33;3.10;;;;;;;14.14;75.56;154992.38;4974916;28;20461;-83
2023/10/08 06:29:18;;;;;;;6.40;3.87;;;;;;;14.18;75.82;155002.78;4968533;28;20508;-82
2023/10/08 06:31:51;;;;;;;4.40;2.93;;;;;;;14.19;75.98;155004.09;4947978;28;20461;-82
2023/10/08 06:34:21;;;;;;;6.10;3.00;;;;;;;14.19;76.00;155004.09;4985331;28;20465;-82
2023/10/08 06:36:50;;;;;;;6.23;2.77;;;;;;;14.17;75.84;155000.19;4968900;28;20960;-82
2023/10/08 06:39:18;;;;;;;7.33;3.07;;;;;;;14.15;73.87;154993.69;4989510;28;20453;-83
2023/10/08 06:41:46;;;;;;;2.80;2.20;;;;;;;14.15;75.19;154995.00;4985477;28;20999;-83
2023/10/08 06:44:15;;;;;;;5.40;3.13;;;;;;;14.16;75.49;154996.31;4986865;28;20982;-83
2023/10/08 06:46:42;;;;;;;7.00;2.87;;;;;;;14.18;76.41;155002.78;4984784;28;20455;-82
2023/10/08 06:49:12;;;;;;;5.20;2.43;;;;;;;14.17;74.50;155000.19;4984787;28;20477;-82
2023/10/08 06:51:41;;;;;;;4.17;2.50;;;;;;;14.21;74.13;155010.59;4985719;28;20549;-82
2023/10/08 06:54:10;;;;;;;4.70;3.17;;;;;;;14.27;77.21;155026.13;4983324;28;20540;-82
2023/10/08 06:56:37;;;;;;;5.37;2.93;;;;;;;14.26;75.53;155023.56;4986414;28;20472;-81
2023/10/08 06:59:05;;;;;;;4.50;2.83;;;;;;;14.29;75.95;155031.38;4986767;28;20532;-82
2023/10/08 07:01:38;;;;;;;4.00;2.57;;;;;;;14.32;75.96;155039.16;4958512;28;20461;-81
2023/10/08 07:04:06;;;;;;;8.40;2.50;;;;;;;14.39;75.35;155057.38;4968059;28;20450;-83
2023/10/08 07:06:33;;;;;;;4.00;2.43;;;;;;;14.50;76.16;155085.97;4980704;28;20820;-83
2023/10/08 07:09:04;;;;;;;3.80;2.50;;;;;;;14.64;75.81;155122.28;4968483;28;20466;-82
2023/10/08 07:11:34;;;;;;;4.90;2.60;;;;;;;15.02;75.24;155219.75;4986675;28;20441;-82
2023/10/08 07:14:01;;;;;;;4.20;2.90;;;;;;;15.44;74.13;155327.59;4970303;28;20469;-82
2023/10/08 07:16:28;;;;;;;4.40;2.40;;;;;;;15.86;73.76;155434.25;4985835;28;20450;-82
2023/10/08 07:19:01;;;;;;;5.10;3.50;;;;;;;16.29;70.78;155546.06;4981986;28;20450;-82
2023/10/08 07:21:29;;;;;;;4.40;2.17;;;;;;;16.78;69.77;155673.59;4966719;28;20485;-82
2023/10/08 07:24:00;;;;;;;4.40;3.00;;;;;;;17.21;67.71;155784.16;4966461;28;20458;-81
2023/10/08 07:26:35;;;;;;;4.30;2.53;;;;;;;17.52;65.09;155864.91;4969086;28;20813;-81
2023/10/08 07:29:07;;;;;;;3.87;2.50;;;;;;;17.87;66.50;155954.72;4986568;28;20469;-83
2023/10/08 07:31:36;;;;;;;6.53;3.30;;;;;;;17.98;64.31;155983.38;4980696;28;20469;-83
2023/10/08 07:34:16;;;;;;;4.60;2.67;;;;;;;17.87;65.50;155954.72;4974792;28;20449;-83
2023/10/08 07:36:43;;;;;;;6.40;2.73;;;;;;;17.63;64.56;155892.28;4972743;28;20551;-82
2023/10/08 07:39:22;;;;;;;3.77;2.73;;;;;;;17.50;64.41;155859.66;4984595;28;20459;-82
2023/10/08 07:41:50;;;;;;;8.57;3.17;;;;;;;17.29;65.67;155805.00;4986873;28;20445;-82
2023/10/08 07:44:20;;;;;;;4.30;2.80;;;;;;;17.23;65.61;155788.09;4979152;28;20793;-83
2023/10/08 07:46:47;;;;;;;4.87;2.80;;;;;;;17.15;66.94;155767.28;4966223;28;20477;-82
2023/10/08 07:49:14;;;;;;;5.00;2.63;;;;;;;17.09;66.86;155751.63;4970663;28;20501;-82
2023/10/08 07:51:41;;;;;;;4.53;2.83;;;;;;;17.04;66.62;155741.25;4970566;28;20465;-82
2023/10/08 07:54:09;;;;;;;5.60;2.53;;;;;;;17.05;66.46;155743.81;4978156;28;20445;-84
2023/10/08 07:56:38;;;;;;;7.33;3.20;;;;;;;17.05;67.33;155743.81;4970949;28;20992;-82
2023/10/08 07:59:08;;;;;;;5.90;2.80;;;;;;;17.11;66.46;155758.16;4987337;28;20449;-83
2023/10/08 08:01:35;;;;;;;4.77;2.53;;;;;;;17.18;66.66;155776.41;4977986;28;20763;-84
2023/10/08 08:04:02;;;;;;;5.13;2.80;;;;;;;17.19;68.58;155778.97;4985532;28;20464;-83
2023/10/08 08:06:30;;;;;;;4.40;2.37;;;;;;;17.23;69.19;155788.09;4976304;28;20994;-83
2023/10/08 08:08:57;;;;;;;7.50;2.80;;;;;;;17.24;68.37;155790.66;4988193;28;20476;-84
2023/10/08 08:11:26;;;;;;;5.03;2.73;;;;;;;17.23;69.19;155788.09;4989024;28;21007;-83
2023/10/08 08:13:52;;;;;;;5.40;3.13;;;;;;;17.23;66.41;155788.09;4981673;28;20562;-83
2023/10/08 08:16:20;;;;;;;6.70;3.50;;;;;;;17.24;66.12;155790.66;4959586;28;20462;-84
2023/10/08 08:18:48;;;;;;;6.00;3.33;;;;;;;17.28;65.50;155801.09;4952089;28;20454;-83
2023/10/08 08:21:16;;;;;;;4.33;2.50;;;;;;;17.32;66.31;155811.50;4967716;28;21075;-83
2023/10/08 08:23:47;;;;;;;4.40;2.90;;;;;;;17.33;71.39;155814.13;4968880;28;20901;-84
2023/10/08 08:26:26;;;;;;;3.83;2.80;;;;;;;17.27;71.27;155798.47;4968294;28;20481;-84
2023/10/08 08:28:54;;;;;;;5.87;2.93;;;;;;;17.24;70.15;155791.97;4950374;28;20462;-84
2023/10/08 08:31:22;;;;;;;4.30;2.37;;;;;;;17.34;65.72;155816.72;4966488;28;20450;-83
2023/10/08 08:33:56;;;;;;;3.50;2.30;;;;;;;17.54;65.74;155868.84;4969191;28;20442;-83
2023/10/08 08:36:24;;;;;;;5.43;2.60;;;;;;;17.69;64.74;155906.56;4968422;28;20945;-83
2023/10/08 08:38:54;;;;;;;6.37;2.97;;;;;;;17.83;64.86;155944.34;4950706;28;20458;-83
2023/10/08 08:41:22;;;;;;;8.30;2.80;;;;;;;18.01;68.04;155989.88;4957936;28;20446;-83
2023/10/08 08:43:56;;;;;;;6.73;2.93;;;;;;;17.95;64.88;155975.56;4969334;28;20446;-84
2023/10/08 08:46:31;;;;;;;4.30;2.70;;;;;;;18.09;63.32;156012.03;4953284;28;20457;-82
2023/10/08 08:49:01;;;;;;;6.17;3.60;;;;;;;18.21;63.23;156043.28;4967658;28;20568;-82
2023/10/08 08:51:29;;;;;;;5.57;3.20;;;;;;;18.30;62.12;156064.13;4965756;28;20466;-83
2023/10/08 08:53:56;;;;;;;5.07;3.37;;;;;;;18.32;62.43;156070.63;4954319;28;20996;-84
2023/10/08 08:56:23;;;;;;;4.53;2.80;;;;;;;18.44;62.23;156100.59;4951199;28;20459;-84
2023/10/08 08:58:50;;;;;;;4.20;2.63;;;;;;;18.54;61.71;156128.00;4967805;28;20484;-83
2023/10/08 09:01:18;;;;;;;4.33;2.57;;;;;;;18.66;62.57;156158.00;4968949;28;20507;-84
2023/10/08 09:03:48;;;;;;;3.93;2.90;;;;;;;18.69;61.44;156167.06;4967647;28;20989;-84
2023/10/08 09:06:14;;;;;;;4.60;3.30;;;;;;;18.64;60.82;156154.06;4964156;28;20474;-83
2023/10/08 09:08:45;;;;;;;6.43;3.60;;;;;;;18.64;60.94;156154.06;4951492;28;20477;-83
2023/10/08 09:11:15;;;;;;;5.07;3.43;;;;;;;18.66;61.22;156158.00;4963723;28;20553;-82
2023/10/08 09:13:43;;;;;;;4.90;3.50;;;;;;;18.67;61.11;156160.56;4951367;28;20474;-83
2023/10/08 09:16:13;;;;;;;5.60;3.43;;;;;;;18.71;61.95;156171.00;4958487;28;20479;-82
2023/10/08 09:18:42;;;;;;;4.80;2.93;;;;;;;18.78;63.05;156189.22;4936539;28;20451;-82
2023/10/08 09:21:15;;;;;;;4.30;3.00;;;;;;;18.86;62.84;156210.09;4965767;28;20462;-83
2023/10/08 09:23:47;;;;;;;7.20;2.80;;;;;;;18.89;62.02;156216.59;4947809;28;20808;-82
2023/10/08 09:26:14;;;;;;;7.67;3.70;;;;;;;19.02;62.62;156250.47;4956980;28;20461;-83
2023/10/08 09:28:42;;;;;;;4.43;2.53;;;;;;;19.05;62.87;156258.28;4946774;28;20597;-82
2023/10/08 09:31:12;;;;;;;6.67;3.47;;;;;;;19.08;63.85;156267.44;4965421;28;20796;-83
2023/10/08 09:33:39;;;;;;;7.20;3.00;;;;;;;19.16;61.08;156286.97;4967036;28;20457;-83
2023/10/08 09:36:07;;;;;;;4.60;2.80;;;;;;;19.29;60.45;156322.16;4965358;28;20885;-83
2023/10/08 09:38:36;;;;;;;6.17;3.07;;;;;;;19.36;59.72;156339.09;4957885;28;20454;-83
2023/10/08 09:41:03;;;;;;;6.40;3.00;;;;;;;19.45;60.06;156362.63;4964607;28;20465;-83
2023/10/08 09:43:31;;;;;;;3.83;2.50;;;;;;;19.54;60.20;156384.78;4949051;28;20805;-82
2023/10/08 09:46:07;;;;;;;4.10;3.10;;;;;;;19.62;59.51;156405.66;4954216;28;20541;-82
2023/10/08 09:48:37;;;;;;;6.83;2.70;;;;;;;19.64;59.91;156412.16;4967022;28;20480;-81
2023/10/08 09:51:06;;;;;;;7.83;3.03;;;;;;;19.78;57.79;156447.31;4964998;28;20807;-81
2023/10/08 09:53:41;;;;;;;5.83;3.00;;;;;;;19.82;58.72;156457.78;4944875;28;20458;-82
2023/10/08 09:56:15;;;;;;;4.53;2.60;;;;;;;19.88;58.62;156474.69;4954988;28;21011;-82
2023/10/08 09:58:42;;;;;;;5.27;3.37;;;;;;;19.88;58.50;156474.69;4967446;28;20450;-82
2023/10/08 10:01:12;;;;;;;3.80;2.80;;;;;;;19.96;58.09;156494.31;4964942;28;20455;-82
2023/10/08 10:03:42;;;;;;;5.10;2.50;;;;;;;20.04;58.14;156515.19;4954212;28;20716;-83
2023/10/08 10:06:14;;;;;;;4.53;2.83;;;;;;;20.04;58.09;156516.44;4964202;28;20473;-82
2023/10/08 10:08:43;;;;;;;7.63;2.83;;;;;;;20.02;58.32;156509.91;4949442;28;20470;-82
2023/10/08 10:11:10;;;;;;;9.63;3.00;;;;;;;20.10;58.42;156530.78;4965843;28;20926;-82
2023/10/08 10:13:41;;;;;;;4.77;2.70;;;;;;;20.11;60.17;156533.41;4947995;28;20887;-82
2023/10/08 10:16:08;;;;;;;5.90;2.57;;;;;;;20.08;60.83;156524.25;4967836;28;20458;-83
2023/10/08 10:18:35;;;;;;;4.50;3.03;;;;;;;20.14;63.37;156539.94;4959224;28;20462;-82
2023/10/08 10:21:29;;;;;;;6.07;2.90;;;;;;;20.05;59.63;156517.75;4980212;28;20469;-82
2023/10/08 10:23:57;;;;;;;6.43;3.27;;;;;;;20.12;59.09;156534.72;4961527;28;20466;-81
2023/10/08 10:26:30;;;;;;;6.03;3.23;;;;;;;20.23;59.42;156564.69;4968092;28;20462;-82
2023/10/08 10:29:19;;;;;;;9.03;3.47;;;;;;;20.36;57.72;156598.66;4958050;28;20550;-82
2023/10/08 10:31:47;;;;;;;5.37;3.13;;;;;;;20.36;56.37;156597.38;4948636;28;20474;-82
2023/10/08 10:34:16;;;;;;;7.47;3.60;;;;;;;20.29;56.26;156579.09;4966033;28;20502;-82
2023/10/08 10:36:43;;;;;;;5.73;3.10;;;;;;;20.25;56.34;156570.00;4949427;28;20494;-82
2023/10/08 10:39:16;;;;;;;5.80;3.20;;;;;;;20.29;56.52;156579.09;4955130;28;20473;-82
2023/10/08 10:41:44;;;;;;;5.17;3.43;;;;;;;20.27;56.60;156575.19;4944766;28;20513;-82
2023/10/08 10:44:13;;;;;;;6.17;3.73;;;;;;;20.28;56.62;156577.78;4960042;28;20484;-82
2023/10/08 10:46:42;;;;;;;5.60;3.80;;;;;;;20.32;57.06;156586.94;4951317;28;20482;-82
2023/10/08 10:49:17;;;;;;;5.30;3.33;;;;;;;20.34;57.19;156593.44;4960832;28;20546;-83
2023/10/08 10:51:44;;;;;;;5.90;3.33;;;;;;;20.31;56.53;156585.63;4951172;28;20446;-83
2023/10/08 10:54:11;;;;;;;7.37;3.53;;;;;;;20.36;56.81;156597.38;4966058;28;20454;-83
2023/10/08 10:56:42;;;;;;;9.67;3.90;;;;;;;20.38;56.75;156603.91;4966331;28;20454;-82
2023/10/08 10:59:18;;;;;;;5.83;3.33;;;;;;;20.43;56.70;156615.63;4964815;28;20546;-82
2023/10/08 11:01:46;;;;;;;9.37;3.70;;;;;;;20.44;57.13;156618.22;4948194;28;20446;-82
2023/10/08 11:04:16;;;;;;;5.40;3.33;;;;;;;20.35;57.44;156596.06;4960604;28;20490;-83
2023/10/08 11:06:44;;;;;;;6.53;3.50;;;;;;;20.30;57.28;156583.03;4967854;28;20825;-82
2023/10/08 11:09:16;;;;;;;5.70;3.20;;;;;;;20.34;58.21;156593.44;4947233;28;20473;-82
2023/10/08 11:11:44;;;;;;;5.50;3.37;;;;;;;20.34;57.45;156593.44;4948637;28;20541;-83
2023/10/08 11:14:18;;;;;;;5.63;3.67;;;;;;;20.36;57.79;156597.38;4966626;28;20485;-82
2023/10/08 11:16:45;;;;;;;5.07;3.00;;;;;;;20.36;57.35;156598.66;4947045;28;20461;-82
2023/10/08 11:19:15;;;;;;;6.10;3.37;;;;;;;20.41;57.74;156611.69;4965783;28;20824;-82
2023/10/08 11:21:51;;;;;;;5.83;3.37;;;;;;;20.45;58.05;156622.16;4966090;28;20976;-83
2023/10/08 11:24:33;;;;;;;5.80;3.30;;;;;;;20.54;57.82;156645.59;4965240;28;20454;-83
2023/10/08 11:27:15;;;;;;;7.23;3.60;;;;;;;20.54;57.87;156644.34;4964284;28;20451;-83
2023/10/08 11:29:43;;;;;;;5.37;3.87;;;;;;;20.53;59.22;156643.03;4963363;28;21079;-82
2023/10/08 11:32:12;;;;;;;6.53;3.30;;;;;;;20.58;58.92;156656.06;4950923;28;20948;-82
2023/10/08 11:34:39;;;;;;;5.87;3.70;;;;;;;20.67;58.56;156676.94;4966696;28;20486;-83
2023/10/08 11:37:07;;;;;;;8.73;3.90;;;;;;;20.75;59.12;156697.81;4964556;28;20533;-83
2023/10/08 11:39:45;;;;;;;6.03;3.50;;;;;;;20.75;58.74;156697.81;4948015;28;20810;-83
2023/10/08 11:42:36;;;;;;;12.00;3.40;;;;;;;20.78;59.27;156705.66;4947662;28;20482;-82
2023/10/08 11:45:17;;;;;;;5.80;3.50;;;;;;;20.82;59.50;156716.06;4947874;28;21074;-82
2023/10/08 11:47:45;;;;;;;5.33;3.10;;;;;;;20.90;60.74;156736.94;4949239;28;20450;-82
2023/10/08 11:50:16;;;;;;;4.30;3.03;;;;;;;20.90;59.06;156736.94;4949885;28;20473;-82
2023/10/08 11:52:43;;;;;;;4.60;3.53;;;;;;;20.92;59.91;156742.16;4948015;28;20458;-82